Time;durP1;ratioP1;P1;durP2;ratioP2;P2;SDS_P1;SDS_P2;PMS_P1;PMS_P2;Temp;Humidity;BMP_temperature;BMP_pressure;BME280_temperature;BME280_humidity;BME280_pressure;Samples;Min_cycle;Max_cycle;Signal;HPM_P1;HPM_P2
2022/10/23 00:00:14;;;;;;;5.93;3.17;;;;;;;;;;5054596;28;20052;-64
2022/10/23 00:02:41;;;;;;;5.72;3.63;;;;;;;;;;5054819;28;20060;-64
2022/10/23 00:05:08;;;;;;;6.40;3.42;;;;;;;;;;5054646;28;20051;-64
2022/10/23 00:07:34;;;;;;;5.40;3.30;;;;;;;;;;5054422;28;20522;-64
2022/10/23 00:10:02;;;;;;;6.60;3.70;;;;;;;;;;5053703;28;20059;-64
2022/10/23 00:12:28;;;;;;;7.15;4.07;;;;;;;;;;5054400;28;20056;-64
2022/10/23 00:14:55;;;;;;;8.50;4.20;;;;;;;;;;5054587;28;20103;-64
2022/10/23 00:17:22;;;;;;;6.72;3.83;;;;;;;;;;5054419;28;20110;-64
2022/10/23 00:19:48;;;;;;;9.98;4.25;;;;;;;;;;5053677;28;20048;-64
2022/10/23 00:22:15;;;;;;;8.05;3.97;;;;;;;;;;5054220;28;20048;-64
2022/10/23 00:24:41;;;;;;;4.90;3.35;;;;;;;;;;5054631;28;20099;-64
2022/10/23 00:27:08;;;;;;;10.00;3.72;;;;;;;;;;5052889;28;20549;-64
2022/10/23 00:29:35;;;;;;;6.95;3.25;;;;;;;;;;5053641;28;20095;-64
2022/10/23 00:32:01;;;;;;;8.77;3.67;;;;;;;;;;5054155;28;20049;-64
2022/10/23 00:34:28;;;;;;;5.80;4.32;;;;;;;;;;5054203;28;20079;-64
2022/10/23 00:36:55;;;;;;;8.15;4.15;;;;;;;;;;5053938;28;20565;-64
2022/10/23 00:39:21;;;;;;;5.85;3.30;;;;;;;;;;5053287;28;20045;-64
2022/10/23 00:41:48;;;;;;;5.03;3.50;;;;;;;;;;5053878;28;20487;-64
2022/10/23 00:44:17;;;;;;;7.88;3.53;;;;;;;;;;5053813;28;20107;-64
2022/10/23 00:46:45;;;;;;;6.53;4.13;;;;;;;;;;5053927;28;20535;-64
2022/10/23 00:49:11;;;;;;;8.18;4.05;;;;;;;;;;5053060;28;20041;-64
2022/10/23 00:51:46;;;;;;;6.88;4.07;;;;;;;;;;5036478;28;20103;-64
2022/10/23 00:54:13;;;;;;;7.30;3.78;;;;;;;;;;5020006;28;20498;-64
2022/10/23 00:56:57;;;;;;;16.47;4.37;;;;;;;;;;5022828;28;20067;-64
2022/10/23 00:59:24;;;;;;;8.02;4.07;;;;;;;;;;5018862;28;20568;-64
2022/10/23 01:01:51;;;;;;;6.05;3.95;;;;;;;;;;5053457;28;20118;-64
2022/10/23 01:04:17;;;;;;;5.03;4.07;;;;;;;;;;5053456;28;20049;-64
2022/10/23 01:06:56;;;;;;;5.07;4.55;;;;;;;;;;5053638;28;20060;-64
2022/10/23 01:09:34;;;;;;;8.68;3.78;;;;;;;;;;5053068;28;20423;-64
2022/10/23 01:12:22;;;;;;;11.25;4.32;;;;;;;;;;5020114;28;20537;-64
2022/10/23 01:15:26;;;;;;;5.03;3.92;;;;;;;;;;5053829;28;20056;-64
2022/10/23 01:18:02;;;;;;;5.90;3.75;;;;;;;;;;5052819;28;20049;-64
2022/10/23 01:20:45;;;;;;;6.38;3.83;;;;;;;;;;5036443;28;20484;-64
2022/10/23 01:23:34;;;;;;;6.55;3.78;;;;;;;;;;5035875;28;20049;-64
2022/10/23 01:26:15;;;;;;;5.32;3.50;;;;;;;;;;5035617;28;20049;-64
2022/10/23 01:28:49;;;;;;;7.45;4.50;;;;;;;;;;5036126;28;20080;-64
2022/10/23 01:31:18;;;;;;;5.85;3.95;;;;;;;;;;5052873;28;20472;-64
2022/10/23 01:33:48;;;;;;;6.25;4.25;;;;;;;;;;5035603;28;20500;-64
2022/10/23 01:36:15;;;;;;;6.95;4.25;;;;;;;;;;5019090;28;20512;-65
2022/10/23 01:38:52;;;;;;;6.55;4.15;;;;;;;;;;5017826;28;20092;-64
2022/10/23 01:41:23;;;;;;;8.52;4.05;;;;;;;;;;5035075;28;20051;-64
2022/10/23 01:43:53;;;;;;;8.57;3.80;;;;;;;;;;5035056;28;20099;-64
2022/10/23 01:46:19;;;;;;;5.90;3.83;;;;;;;;;;5052965;28;20434;-64
2022/10/23 01:48:51;;;;;;;12.55;4.80;;;;;;;;;;5034398;28;20072;-64
2022/10/23 01:51:19;;;;;;;6.83;3.60;;;;;;;;;;5035127;28;20069;-64
2022/10/23 01:53:47;;;;;;;10.10;3.53;;;;;;;;;;5018760;28;20283;-64
2022/10/23 01:56:18;;;;;;;6.53;3.80;;;;;;;;;;5034811;28;20061;-64
2022/10/23 01:58:47;;;;;;;6.38;3.90;;;;;;;;;;5018119;28;20081;-64
2022/10/23 02:01:14;;;;;;;8.80;4.00;;;;;;;;;;5018266;28;20049;-64
2022/10/23 02:03:41;;;;;;;6.75;3.80;;;;;;;;;;5034743;28;20055;-64
2022/10/23 02:06:07;;;;;;;6.53;3.65;;;;;;;;;;5018420;28;20045;-64
2022/10/23 02:08:34;;;;;;;10.80;4.00;;;;;;;;;;5051688;28;20103;-64
2022/10/23 02:11:10;;;;;;;4.57;3.50;;;;;;;;;;5052147;28;20056;-64
2022/10/23 02:14:04;;;;;;;6.32;3.28;;;;;;;;;;5034561;28;20099;-64
2022/10/23 02:16:38;;;;;;;10.10;3.40;;;;;;;;;;5052495;28;20045;-64
2022/10/23 02:19:26;;;;;;;8.00;3.42;;;;;;;;;;5017759;28;20546;-64
2022/10/23 02:22:09;;;;;;;3.83;3.40;;;;;;;;;;5052410;28;20194;-64
2022/10/23 02:24:43;;;;;;;5.03;3.35;;;;;;;;;;5019295;28;20057;-64
2022/10/23 02:27:37;;;;;;;14.35;3.42;;;;;;;;;;5051952;28;20115;-64
2022/10/23 02:30:08;;;;;;;5.70;3.50;;;;;;;;;;5021069;28;20080;-64
2022/10/23 02:32:36;;;;;;;6.47;3.50;;;;;;;;;;4998972;28;20064;-64
2022/10/23 02:35:03;;;;;;;3.95;3.38;;;;;;;;;;4998498;28;20053;-64
2022/10/23 02:37:29;;;;;;;4.20;3.45;;;;;;;;;;5032269;28;20049;-64
2022/10/23 02:39:56;;;;;;;7.13;4.20;;;;;;;;;;5031104;28;20073;-64
2022/10/23 02:42:27;;;;;;;7.20;3.72;;;;;;;;;;5046596;28;20052;-64
2022/10/23 02:45:06;;;;;;;8.20;4.13;;;;;;;;;;5034845;28;20049;-64
2022/10/23 02:47:51;;;;;;;5.90;3.85;;;;;;;;;;5036131;28;20116;-64
2022/10/23 02:50:25;;;;;;;7.50;3.95;;;;;;;;;;5051348;28;20045;-64
2022/10/23 02:53:07;;;;;;;6.32;4.10;;;;;;;;;;5034406;28;20080;-64
2022/10/23 02:55:43;;;;;;;9.55;4.18;;;;;;;;;;5051521;28;20094;-64
2022/10/23 02:58:25;;;;;;;5.82;4.28;;;;;;;;;;5051029;28;20049;-64
2022/10/23 03:01:00;;;;;;;7.72;4.32;;;;;;;;;;5035251;28;20045;-64
2022/10/23 03:03:30;;;;;;;8.50;4.22;;;;;;;;;;5034521;28;20053;-64
2022/10/23 03:05:57;;;;;;;5.55;3.58;;;;;;;;;;5018236;28;20546;-64
2022/10/23 03:08:24;;;;;;;7.72;3.67;;;;;;;;;;5051083;28;20076;-64
2022/10/23 03:10:50;;;;;;;6.25;4.38;;;;;;;;;;5051375;28;20045;-64
2022/10/23 03:13:17;;;;;;;10.77;3.42;;;;;;;;;;5051418;28;20084;-64
2022/10/23 03:15:43;;;;;;;5.70;3.90;;;;;;;;;;5051702;28;20068;-65
2022/10/23 03:18:10;;;;;;;11.82;4.38;;;;;;;;;;5051236;28;20087;-64
2022/10/23 03:20:36;;;;;;;6.88;3.63;;;;;;;;;;5051153;28;20073;-64
2022/10/23 03:23:04;;;;;;;8.18;3.05;;;;;;;;;;5051240;28;20049;-64
2022/10/23 03:25:30;;;;;;;4.80;3.30;;;;;;;;;;5051333;28;20053;-64
2022/10/23 03:27:57;;;;;;;4.70;2.63;;;;;;;;;;5050922;28;20057;-64
2022/10/23 03:30:23;;;;;;;5.60;2.63;;;;;;;;;;5051358;28;20118;-64
2022/10/23 03:32:50;;;;;;;3.53;2.90;;;;;;;;;;5051237;28;20088;-64
2022/10/23 03:35:17;;;;;;;5.07;3.45;;;;;;;;;;5051444;28;20414;-64
2022/10/23 03:37:43;;;;;;;5.57;3.25;;;;;;;;;;5050941;28;20049;-64
2022/10/23 03:40:10;;;;;;;3.45;2.97;;;;;;;;;;5050497;28;20052;-64
2022/10/23 03:42:37;;;;;;;4.78;3.17;;;;;;;;;;5051113;28;20099;-64
2022/10/23 03:45:04;;;;;;;7.38;3.50;;;;;;;;;;5051105;28;20110;-64
2022/10/23 03:47:34;;;;;;;7.10;2.80;;;;;;;;;;5051257;28;20053;-63
2022/10/23 03:50:00;;;;;;;4.90;2.40;;;;;;;;;;5050274;28;20068;-64
2022/10/23 03:52:27;;;;;;;4.47;3.08;;;;;;;;;;5051060;28;20099;-64
2022/10/23 03:54:54;;;;;;;3.85;2.88;;;;;;;;;;5050799;28;20496;-63
2022/10/23 03:57:20;;;;;;;3.00;2.70;;;;;;;;;;5051228;28;20045;-64
2022/10/23 03:59:47;;;;;;;6.40;3.53;;;;;;;;;;5050118;28;20045;-64
2022/10/23 04:02:13;;;;;;;6.00;2.95;;;;;;;;;;5034961;28;20049;-64
2022/10/23 04:04:40;;;;;;;5.10;3.00;;;;;;;;;;5054631;28;20045;-64
2022/10/23 04:07:07;;;;;;;4.70;3.00;;;;;;;;;;5054712;28;20049;-64
2022/10/23 04:09:33;;;;;;;6.38;3.10;;;;;;;;;;5053775;28;20045;-64
2022/10/23 04:12:00;;;;;;;5.20;3.17;;;;;;;;;;5054431;28;20053;-64
2022/10/23 04:14:27;;;;;;;5.35;2.95;;;;;;;;;;5054674;28;20048;-64
2022/10/23 04:16:53;;;;;;;12.00;3.22;;;;;;;;;;5054567;28;20466;-64
2022/10/23 04:19:20;;;;;;;4.72;2.95;;;;;;;;;;5053854;28;20072;-64
2022/10/23 04:21:46;;;;;;;3.53;2.90;;;;;;;;;;5054138;28;20118;-64
2022/10/23 04:24:13;;;;;;;3.72;2.67;;;;;;;;;;5054215;28;20397;-64
2022/10/23 04:26:40;;;;;;;7.05;3.22;;;;;;;;;;5054625;28;20049;-64
2022/10/23 04:29:06;;;;;;;4.35;2.60;;;;;;;;;;5053756;28;20468;-64
2022/10/23 04:31:33;;;;;;;4.38;2.97;;;;;;;;;;5053977;28;20550;-64
2022/10/23 04:33:59;;;;;;;4.63;2.70;;;;;;;;;;5054611;28;20059;-64
2022/10/23 04:36:26;;;;;;;3.65;2.65;;;;;;;;;;5054359;28;20080;-64
2022/10/23 04:38:53;;;;;;;7.00;3.00;;;;;;;;;;5053226;28;20389;-64
2022/10/23 04:41:19;;;;;;;10.00;2.75;;;;;;;;;;5054203;28;20073;-64
2022/10/23 04:43:46;;;;;;;6.63;3.10;;;;;;;;;;5053757;28;20431;-64
2022/10/23 04:46:13;;;;;;;7.70;2.72;;;;;;;;;;5053925;28;20124;-64
2022/10/23 04:48:39;;;;;;;3.70;2.60;;;;;;;;;;5053391;28;20053;-64
2022/10/23 04:51:06;;;;;;;5.30;3.20;;;;;;;;;;5053609;28;20076;-64
2022/10/23 04:53:33;;;;;;;7.07;2.92;;;;;;;;;;5053680;28;20049;-64
2022/10/23 04:56:00;;;;;;;7.85;2.70;;;;;;;;;;5053907;28;20466;-64
2022/10/23 04:58:27;;;;;;;4.25;2.80;;;;;;;;;;5053594;28;20428;-64
2022/10/23 05:00:54;;;;;;;6.68;2.67;;;;;;;;;;5079688;22;20890;-62
2022/10/23 05:03:22;;;;;;;4.57;2.63;;;;;;;;;;5091546;28;20071;-63
2022/10/23 05:05:51;;;;;;;8.60;2.88;;;;;;;;;;5093037;28;20122;-62
2022/10/23 05:08:18;;;;;;;6.18;3.03;;;;;;;;;;5092716;28;20074;-62
2022/10/23 05:10:46;;;;;;;5.22;2.58;;;;;;;;;;5093057;28;20040;-62
2022/10/23 05:13:13;;;;;;;8.82;2.97;;;;;;;;;;5092296;28;20044;-62
2022/10/23 05:15:40;;;;;;;5.85;2.90;;;;;;;;;;5092952;28;20726;-62
2022/10/23 05:18:13;;;;;;;5.70;2.67;;;;;;;;;;5092468;28;20476;-62
2022/10/23 05:20:39;;;;;;;;;;;;;;;;;;5093187;28;20093;-62
2022/10/23 05:23:07;;;;;;;5.65;2.90;;;;;;;;;;5092679;28;19935;-62
2022/10/23 05:25:34;;;;;;;4.65;2.53;;;;;;;;;;5074971;28;20392;-62
2022/10/23 05:28:00;;;;;;;5.70;2.60;;;;;;;;;;5091271;28;20048;-64
2022/10/23 05:30:27;;;;;;;4.00;2.65;;;;;;;;;;5092588;28;20422;-62
2022/10/23 05:32:54;;;;;;;2.85;2.40;;;;;;;;;;5092320;28;20048;-62
2022/10/23 05:35:21;;;;;;;5.65;2.60;;;;;;;;;;5092549;28;20114;-62
2022/10/23 05:37:48;;;;;;;4.90;2.47;;;;;;;;;;5091262;28;20407;-62
2022/10/23 05:40:15;;;;;;;2.85;2.45;;;;;;;;;;5091184;28;20102;-62
2022/10/23 05:42:42;;;;;;;6.40;3.00;;;;;;;;;;5070861;28;20560;-62
2022/10/23 05:45:09;;;;;;;4.95;3.30;;;;;;;;;;5072245;28;20499;-62
2022/10/23 05:47:36;;;;;;;3.28;2.80;;;;;;;;;;5072190;28;20060;-62
2022/10/23 05:50:03;;;;;;;3.28;2.92;;;;;;;;;;5070634;28;20044;-62
2022/10/23 05:52:30;;;;;;;3.83;2.92;;;;;;;;;;5072183;28;20060;-62
2022/10/23 05:54:56;;;;;;;3.25;2.92;;;;;;;;;;5072716;28;20060;-62
2022/10/23 05:57:23;;;;;;;5.25;2.72;;;;;;;;;;5091122;28;20472;-62
2022/10/23 05:59:50;;;;;;;5.03;2.42;;;;;;;;;;5091581;28;20044;-62
2022/10/23 06:02:16;;;;;;;4.80;2.72;;;;;;;;;;5086422;28;143232;-62
2022/10/23 06:04:43;;;;;;;5.65;2.70;;;;;;;;;;5092889;28;20044;-62
2022/10/23 06:07:09;;;;;;;4.10;2.78;;;;;;;;;;5092815;28;20077;-62
2022/10/23 06:09:36;;;;;;;4.50;2.28;;;;;;;;;;5086441;28;20102;-62
2022/10/23 06:12:03;;;;;;;4.25;3.20;;;;;;;;;;5072410;28;20052;-62
2022/10/23 06:14:30;;;;;;;3.28;2.75;;;;;;;;;;5072308;28;20052;-62
2022/10/23 06:16:56;;;;;;;3.20;2.83;;;;;;;;;;5072716;28;20076;-62
2022/10/23 06:19:23;;;;;;;3.97;2.40;;;;;;;;;;5071817;28;20052;-62
2022/10/23 06:21:49;;;;;;;4.05;2.53;;;;;;;;;;5072483;28;20055;-62
2022/10/23 06:24:16;;;;;;;4.30;2.40;;;;;;;;;;5085977;28;20052;-62
2022/10/23 06:26:43;;;;;;;4.68;2.40;;;;;;;;;;5092433;28;20050;-63
2022/10/23 06:29:10;;;;;;;7.00;3.35;;;;;;;;;;5091788;28;20052;-62
2022/10/23 06:31:37;;;;;;;5.50;2.60;;;;;;;;;;5092695;28;20043;-62
2022/10/23 06:34:04;;;;;;;4.60;2.10;;;;;;;;;;5092602;28;20094;-62
2022/10/23 06:36:31;;;;;;;5.85;2.30;;;;;;;;;;5091137;28;20044;-62
2022/10/23 06:38:58;;;;;;;4.97;2.60;;;;;;;;;;5071706;28;20102;-62
2022/10/23 06:41:29;;;;;;;11.20;2.63;;;;;;;;;;5071741;28;20048;-62
2022/10/23 06:43:56;;;;;;;9.38;2.30;;;;;;;;;;5072193;28;20052;-62
2022/10/23 06:46:23;;;;;;;4.95;1.90;;;;;;;;;;5072561;28;20097;-62
2022/10/23 06:48:49;;;;;;;4.28;2.20;;;;;;;;;;5071544;28;20048;-62
2022/10/23 06:51:16;;;;;;;5.13;2.33;;;;;;;;;;5071961;28;20051;-62
2022/10/23 06:53:43;;;;;;;6.18;2.70;;;;;;;;;;5071995;28;20098;-62
2022/10/23 06:56:10;;;;;;;2.90;2.58;;;;;;;;;;5071904;28;20469;-62
2022/10/23 06:58:37;;;;;;;2.80;2.20;;;;;;;;;;5069989;28;20052;-62
2022/10/23 07:01:06;;;;;;;5.32;2.53;;;;;;;;;;5071663;28;20080;-62
2022/10/23 07:03:33;;;;;;;4.60;2.50;;;;;;;;;;5070728;28;20055;-62
2022/10/23 07:06:01;;;;;;;3.33;2.17;;;;;;;;;;5089080;28;20094;-62
2022/10/23 07:08:28;;;;;;;3.45;2.17;;;;;;;;;;5090310;28;20060;-61
2022/10/23 07:10:55;;;;;;;3.08;2.10;;;;;;;;;;5091711;28;20048;-62
2022/10/23 07:13:23;;;;;;;3.40;2.00;;;;;;;;;;5092061;28;20453;-62
2022/10/23 07:15:50;;;;;;;7.00;2.45;;;;;;;;;;5092073;28;20074;-62
2022/10/23 07:18:18;;;;;;;3.05;2.05;;;;;;;;;;5091578;28;20052;-62
2022/10/23 07:20:48;;;;;;;4.15;2.10;;;;;;;;;;5079146;28;20044;-62
2022/10/23 07:23:15;;;;;;;5.50;1.83;;;;;;;;;;5071733;28;20048;-62
2022/10/23 07:25:42;;;;;;;2.40;2.00;;;;;;;;;;5071908;28;20048;-62
2022/10/23 07:28:08;;;;;;;4.28;1.90;;;;;;;;;;5071496;28;20079;-62
2022/10/23 07:30:35;;;;;;;2.08;1.88;;;;;;;;;;5071702;28;20045;-62
2022/10/23 07:33:01;;;;;;;7.25;2.40;;;;;;;;;;5076404;28;20549;-62
2022/10/23 07:35:28;;;;;;;3.90;1.90;;;;;;;;;;5090442;28;20453;-60
2022/10/23 07:37:59;;;;;;;2.13;1.92;;;;;;;;;;5094169;28;20087;-63
2022/10/23 07:40:25;;;;;;;4.30;2.33;;;;;;;;;;5094952;28;20044;-62
2022/10/23 07:42:52;;;;;;;4.82;2.35;;;;;;;;;;5095865;28;20095;-62
2022/10/23 07:45:18;;;;;;;4.78;2.45;;;;;;;;;;5095353;28;20074;-62
2022/10/23 07:47:49;;;;;;;4.97;2.55;;;;;;;;;;5095491;28;20051;-62
2022/10/23 07:50:16;;;;;;;2.67;2.00;;;;;;;;;;5095118;28;20047;-62
2022/10/23 07:52:42;;;;;;;2.80;2.25;;;;;;;;;;5095692;28;20117;-62
2022/10/23 07:55:09;;;;;;;2.53;1.90;;;;;;;;;;5095656;28;20048;-62
2022/10/23 07:57:37;;;;;;;4.63;1.90;;;;;;;;;;5085019;28;20102;-62
2022/10/23 08:00:05;;;;;;;7.07;2.53;;;;;;;;;;5074463;28;20487;-62
2022/10/23 08:02:31;;;;;;;3.78;2.20;;;;;;;;;;5073523;28;20453;-62
2022/10/23 08:04:58;;;;;;;5.22;2.33;;;;;;;;;;5075960;28;20548;-62
2022/10/23 08:07:24;;;;;;;2.47;2.28;;;;;;;;;;5095366;28;20070;-62
2022/10/23 08:09:51;;;;;;;3.50;2.35;;;;;;;;;;5094577;28;20048;-62
2022/10/23 08:12:18;;;;;;;6.43;2.90;;;;;;;;;;5095027;28;20469;-62
2022/10/23 08:14:44;;;;;;;3.97;2.42;;;;;;;;;;5093720;28;20048;-63
2022/10/23 08:17:11;;;;;;;4.60;2.45;;;;;;;;;;5095078;28;20052;-62
2022/10/23 08:19:38;;;;;;;7.25;2.63;;;;;;;;;;5094328;28;20564;-63
2022/10/23 08:22:04;;;;;;;4.30;2.30;;;;;;;;;;5095016;28;20044;-62
2022/10/23 08:24:31;;;;;;;3.30;2.08;;;;;;;;;;5095555;28;20048;-63
2022/10/23 08:26:58;;;;;;;3.85;2.28;;;;;;;;;;5094783;28;20079;-62
2022/10/23 08:29:24;;;;;;;1.80;1.70;;;;;;;;;;5094214;28;20040;-62
2022/10/23 08:31:56;;;;;;;3.72;1.55;;;;;;;;;;5094660;28;20464;-62
2022/10/23 08:34:22;;;;;;;2.05;1.63;;;;;;;;;;5086178;28;20044;-62
2022/10/23 08:36:49;;;;;;;2.17;1.23;;;;;;;;;;5074514;28;20083;-62
2022/10/23 08:39:15;;;;;;;4.53;1.50;;;;;;;;;;5072746;28;20044;-62
2022/10/23 08:41:47;;;;;;;2.22;1.17;;;;;;;;;;5074186;28;20068;-62
2022/10/23 08:44:55;;;;;;;2.78;1.25;;;;;;;;;;5073372;28;20048;-62
2022/10/23 08:47:45;;;;;;;3.30;1.80;;;;;;;;;;5064651;28;20122;-62
2022/10/23 08:50:26;;;;;;;5.68;1.73;;;;;;;;;;5072301;28;20053;-63
2022/10/23 08:53:03;;;;;;;1.10;0.98;;;;;;;;;;5073161;28;20056;-63
2022/10/23 08:55:33;;;;;;;1.92;1.38;;;;;;;;;;5073924;28;20506;-63
2022/10/23 08:58:04;;;;;;;4.78;1.27;;;;;;;;;;5074260;28;20048;-62
2022/10/23 09:00:31;;;;;;;2.70;1.17;;;;;;;;;;5073820;28;20076;-62
2022/10/23 09:03:01;;;;;;;2.83;1.00;;;;;;;;;;5072092;28;20084;-62
2022/10/23 09:05:36;;;;;;;1.38;1.27;;;;;;;;;;5072645;28;20056;-63
2022/10/23 09:08:29;;;;;;;2.40;1.20;;;;;;;;;;5072413;28;20053;-63
2022/10/23 09:11:20;;;;;;;2.85;1.60;;;;;;;;;;5072752;28;20099;-62
2022/10/23 09:14:33;;;;;;;3.63;1.77;;;;;;;;;;5073184;28;20498;-62
2022/10/23 09:17:17;;;;;;;3.07;2.03;;;;;;;;;;5052596;28;20487;-62
2022/10/23 09:19:44;;;;;;;2.08;1.52;;;;;;;;;;5088501;28;20287;-62
2022/10/23 09:22:11;;;;;;;5.03;1.70;;;;;;;;;;5073784;28;20103;-62
2022/10/23 09:24:43;;;;;;;2.58;1.00;;;;;;;;;;5072769;28;20048;-62
2022/10/23 09:27:19;;;;;;;2.87;1.07;;;;;;;;;;5074148;28;20052;-62
2022/10/23 09:29:51;;;;;;;2.53;1.65;;;;;;;;;;5073083;28;20286;-63
2022/10/23 09:32:18;;;;;;;2.30;1.13;;;;;;;;;;5079632;28;20083;-62
2022/10/23 09:34:53;;;;;;;1.13;0.88;;;;;;;;;;5091060;28;20044;-63
2022/10/23 09:37:25;;;;;;;1.98;0.93;;;;;;;;;;5081307;28;20106;-62
2022/10/23 09:40:14;;;;;;;3.72;1.83;;;;;;;;;;5079658;28;20541;-62
2022/10/23 09:42:57;;;;;;;1.15;0.90;;;;;;;;;;5078217;28;20048;-63
2022/10/23 09:45:33;;;;;;;1.75;0.88;;;;;;;;;;5078582;28;20060;-63
2022/10/23 09:48:12;;;;;;;3.80;1.20;;;;;;;;;;5074703;28;20045;-63
2022/10/23 09:51:02;;;;;;;2.03;0.95;;;;;;;;;;5077777;28;20044;-63
2022/10/23 09:53:31;;;;;;;1.63;0.82;;;;;;;;;;5077694;28;20102;-62
2022/10/23 09:56:01;;;;;;;1.92;1.00;;;;;;;;;;5088695;28;20070;-62
2022/10/23 09:58:33;;;;;;;1.05;0.88;;;;;;;;;;5103986;28;20052;-63
2022/10/23 10:01:00;;;;;;;1.95;1.30;;;;;;;;;;5093776;28;20491;-62
2022/10/23 10:03:27;;;;;;;2.80;1.33;;;;;;;;;;5106646;28;20075;-62
2022/10/23 10:06:03;;;;;;;3.20;0.90;;;;;;;;;;5110070;28;20064;-63
2022/10/23 10:08:47;;;;;;;2.58;0.90;;;;;;;;;;5107347;28;20044;-63
2022/10/23 10:11:23;;;;;;;0.95;0.60;;;;;;;;;;5082922;28;20549;-63
2022/10/23 10:14:21;;;;;;;3.28;0.93;;;;;;;;;;5087646;28;20048;-63
2022/10/23 10:16:55;;;;;;;1.48;0.80;;;;;;;;;;5088398;28;20106;-63
2022/10/23 10:19:46;;;;;;;0.70;0.70;;;;;;;;;;5088728;28;20049;-63
2022/10/23 10:22:34;;;;;;;4.68;1.15;;;;;;;;;;5072969;28;20041;-63
2022/10/23 10:25:19;;;;;;;2.45;1.13;;;;;;;;;;5056476;28;20048;-62
2022/10/23 10:27:57;;;;;;;1.35;0.90;;;;;;;;;;5072640;28;20086;-63
2022/10/23 10:30:23;;;;;;;2.15;0.88;;;;;;;;;;5071895;28;20053;-63
2022/10/23 10:32:50;;;;;;;2.50;1.05;;;;;;;;;;5055375;28;20396;-63
2022/10/23 10:35:56;;;;;;;1.63;1.20;;;;;;;;;;5073114;28;20102;-63
2022/10/23 10:38:22;;;;;;;0.82;0.82;;;;;;;;;;4990930;28;20049;-63
2022/10/23 10:41:26;;;;;;;2.97;0.70;;;;;;;;;;5072186;28;20083;-62
2022/10/23 10:43:56;;;;;;;1.00;0.80;;;;;;;;;;5072478;28;20044;-63
2022/10/23 10:46:28;;;;;;;1.67;0.57;;;;;;;;;;5072111;28;20052;-62
2022/10/23 10:49:25;;;;;;;1.33;0.80;;;;;;;;;;5070707;28;20053;-63
2022/10/23 10:51:59;;;;;;;1.05;0.90;;;;;;;;;;5064008;28;20094;-63
2022/10/23 10:54:35;;;;;;;2.78;1.10;;;;;;;;;;5072212;28;20048;-62
2022/10/23 10:57:05;;;;;;;0.82;0.70;;;;;;;;;;5072162;28;20072;-63
2022/10/23 10:59:36;;;;;;;1.67;0.80;;;;;;;;;;5053943;28;20564;-62
2022/10/23 11:02:23;;;;;;;1.27;0.80;;;;;;;;;;5073613;22;20565;-66
2022/10/23 11:05:02;;;;;;;3.58;1.00;;;;;;;;;;5014672;28;20060;-65
2022/10/23 11:07:34;;;;;;;2.10;0.82;;;;;;;;;;5031737;28;20091;-66
2022/10/23 11:10:05;;;;;;;0.85;0.80;;;;;;;;;;5031083;28;20554;-66
2022/10/23 11:12:32;;;;;;;1.45;0.80;;;;;;;;;;5013402;28;20050;-65
2022/10/23 11:14:58;;;;;;;2.60;0.70;;;;;;;;;;5031591;28;20108;-66
2022/10/23 11:17:58;;;;;;;2.35;1.27;;;;;;;;;;5014301;28;20041;-66
2022/10/23 11:20:49;;;;;;;2.35;0.80;;;;;;;;;;5014284;28;20412;-67
2022/10/23 11:23:34;;;;;;;1.52;0.73;;;;;;;;;;5014299;28;20511;-66
2022/10/23 11:26:07;;;;;;;2.08;1.00;;;;;;;;;;5031693;28;20416;-66
2022/10/23 11:28:43;;;;;;;1.15;1.05;;;;;;;;;;5031024;28;20466;-66
2022/10/23 11:31:27;;;;;;;1.77;0.88;;;;;;;;;;5031191;28;20500;-65
2022/10/23 11:34:36;;;;;;;2.58;0.90;;;;;;;;;;5031522;28;20046;-66
2022/10/23 11:37:03;;;;;;;0.88;0.80;;;;;;;;;;4998423;28;20478;-66
2022/10/23 11:39:31;;;;;;;1.27;1.17;;;;;;;;;;5013353;28;20057;-67
2022/10/23 11:42:04;;;;;;;1.70;0.90;;;;;;;;;;5013917;28;20393;-67
2022/10/23 11:44:33;;;;;;;2.00;0.90;;;;;;;;;;5031540;28;20053;-65
2022/10/23 11:47:05;;;;;;;2.17;0.77;;;;;;;;;;5031182;28;20500;-67
2022/10/23 11:49:32;;;;;;;1.17;0.85;;;;;;;;;;5030840;28;20058;-66
2022/10/23 11:52:03;;;;;;;1.50;1.08;;;;;;;;;;5031138;28;20046;-66
2022/10/23 11:54:30;;;;;;;2.42;1.25;;;;;;;;;;5031576;28;20103;-66
2022/10/23 11:57:06;;;;;;;1.23;0.70;;;;;;;;;;4997707;28;20057;-66
2022/10/23 11:59:48;;;;;;;0.80;0.80;;;;;;;;;;5030554;28;20510;-65
2022/10/23 12:02:31;;;;;;;1.30;1.20;;;;;;;;;;5030943;28;20095;-67
2022/10/23 12:05:05;;;;;;;1.73;1.40;;;;;;;;;;5031584;28;20058;-66
2022/10/23 12:07:39;;;;;;;1.30;1.00;;;;;;;;;;5031219;28;20072;-66
2022/10/23 12:10:21;;;;;;;1.88;1.10;;;;;;;;;;5030489;28;20049;-65
2022/10/23 12:12:58;;;;;;;2.00;0.85;;;;;;;;;;5031155;28;20049;-66
2022/10/23 12:15:25;;;;;;;4.50;1.30;;;;;;;;;;5031314;28;20049;-66
2022/10/23 12:17:54;;;;;;;1.70;1.02;;;;;;;;;;5030479;28;20053;-66
2022/10/23 12:20:30;;;;;;;3.00;0.90;;;;;;;;;;5013624;28;20122;-66
2022/10/23 12:23:36;;;;;;;1.10;0.82;;;;;;;;;;5015220;28;20088;-66
2022/10/23 12:26:38;;;;;;;1.38;0.80;;;;;;;;;;4984843;28;20056;-66
2022/10/23 12:29:20;;;;;;;3.47;1.10;;;;;;;;;;4979841;28;20077;-65
2022/10/23 12:32:23;;;;;;;3.67;1.58;;;;;;;;;;5034323;28;20467;-66
2022/10/23 12:35:04;;;;;;;3.47;1.20;;;;;;;;;;5034357;28;20053;-66
2022/10/23 12:37:53;;;;;;;2.50;1.17;;;;;;;;;;5034463;28;20049;-65
2022/10/23 12:40:20;;;;;;;2.13;1.08;;;;;;;;;;5034304;28;20127;-66
2022/10/23 12:42:50;;;;;;;1.67;1.13;;;;;;;;;;5034254;28;20464;-66
2022/10/23 12:45:31;;;;;;;4.32;1.65;;;;;;;;;;5016766;28;20099;-66
2022/10/23 12:47:58;;;;;;;3.42;2.38;;;;;;;;;;5032453;28;20053;-66
2022/10/23 12:50:29;;;;;;;1.65;1.40;;;;;;;;;;5033915;28;20475;-66
2022/10/23 12:53:00;;;;;;;2.65;1.30;;;;;;;;;;5034113;28;20450;-66
2022/10/23 12:56:04;;;;;;;2.10;0.90;;;;;;;;;;5034226;28;20097;-66
2022/10/23 12:58:32;;;;;;;2.42;1.05;;;;;;;;;;4958476;28;20093;-64
2022/10/23 13:01:02;;;;;;;1.38;0.93;;;;;;;;;;5022284;28;20543;-65
2022/10/23 13:03:30;;;;;;;1.40;1.30;;;;;;;;;;5033705;28;20077;-65
2022/10/23 13:05:57;;;;;;;2.28;1.23;;;;;;;;;;5016271;28;20053;-63
2022/10/23 13:08:28;;;;;;;2.80;1.27;;;;;;;;;;5000420;28;20077;-64
2022/10/23 13:10:54;;;;;;;2.67;1.25;;;;;;;;;;5016339;28;20057;-66
2022/10/23 13:13:22;;;;;;;4.05;1.38;;;;;;;;;;4999717;28;20077;-64
2022/10/23 13:15:49;;;;;;;3.30;0.93;;;;;;;;;;5033775;28;20142;-63
2022/10/23 13:18:16;;;;;;;2.55;1.58;;;;;;;;;;5033405;28;20045;-63
2022/10/23 13:20:55;;;;;;;3.58;1.30;;;;;;;;;;4999803;28;20049;-63
2022/10/23 13:23:22;;;;;;;1.48;1.23;;;;;;;;;;5016102;28;20123;-64
2022/10/23 13:26:15;;;;;;;2.88;1.00;;;;;;;;;;5033272;28;20103;-63
2022/10/23 13:28:43;;;;;;;2.00;1.00;;;;;;;;;;4987099;28;20111;-64
2022/10/23 13:31:11;;;;;;;1.92;0.90;;;;;;;;;;4999843;28;20053;-65
2022/10/23 13:33:41;;;;;;;1.52;1.15;;;;;;;;;;5033281;28;20546;-64
2022/10/23 13:36:12;;;;;;;3.33;1.15;;;;;;;;;;5015116;28;20045;-64
2022/10/23 13:38:41;;;;;;;1.25;1.00;;;;;;;;;;5032664;28;20123;-65
2022/10/23 13:41:15;;;;;;;4.53;1.20;;;;;;;;;;5033055;28;20057;-65
2022/10/23 13:43:42;;;;;;;2.72;1.20;;;;;;;;;;4999900;28;20069;-64
2022/10/23 13:46:13;;;;;;;1.83;1.42;;;;;;;;;;5015960;28;20049;-65
2022/10/23 13:48:40;;;;;;;2.08;1.48;;;;;;;;;;5014657;28;20107;-65
2022/10/23 13:51:19;;;;;;;2.42;1.50;;;;;;;;;;5032890;28;20123;-65
2022/10/23 13:53:46;;;;;;;2.40;1.33;;;;;;;;;;5032873;28;20501;-65
2022/10/23 13:56:14;;;;;;;2.00;1.13;;;;;;;;;;5032786;28;20076;-65
2022/10/23 13:58:41;;;;;;;2.25;1.20;;;;;;;;;;5032251;28;20053;-65
2022/10/23 14:01:21;;;;;;;4.97;1.15;;;;;;;;;;5032821;28;20045;-64
2022/10/23 14:03:49;;;;;;;1.75;0.77;;;;;;;;;;5032764;28;20046;-64
2022/10/23 14:06:16;;;;;;;2.58;1.10;;;;;;;;;;5032616;28;20054;-63
2022/10/23 14:08:42;;;;;;;2.10;1.02;;;;;;;;;;5032140;28;20077;-64
2022/10/23 14:11:14;;;;;;;1.40;1.10;;;;;;;;;;5032646;28;20107;-64
2022/10/23 14:13:46;;;;;;;1.13;1.02;;;;;;;;;;5032494;28;20465;-64
2022/10/23 14:16:15;;;;;;;1.63;1.25;;;;;;;;;;5032467;28;20076;-65
2022/10/23 14:18:41;;;;;;;3.17;1.30;;;;;;;;;;5014264;28;20053;-65
2022/10/23 14:21:10;;;;;;;2.55;1.23;;;;;;;;;;5031963;28;20465;-65
2022/10/23 14:23:37;;;;;;;3.53;2.15;;;;;;;;;;5032316;28;20077;-65
2022/10/23 14:26:09;;;;;;;5.85;4.22;;;;;;;;;;5032150;28;20500;-65
2022/10/23 14:28:36;;;;;;;6.77;4.50;;;;;;;;;;5031910;28;20122;-65
2022/10/23 14:31:10;;;;;;;4.18;3.42;;;;;;;;;;5032194;28;20292;-64
2022/10/23 14:33:37;;;;;;;6.70;5.22;;;;;;;;;;5032178;28;20080;-64
2022/10/23 14:36:04;;;;;;;11.10;6.80;;;;;;;;;;5032145;28;20107;-65
2022/10/23 14:38:31;;;;;;;7.70;6.60;;;;;;;;;;5031483;28;20140;-65
2022/10/23 14:40:57;;;;;;;9.43;5.80;;;;;;;;;;5032052;28;20053;-65
2022/10/23 14:43:24;;;;;;;6.97;4.80;;;;;;;;;;5034368;28;20049;-65
2022/10/23 14:45:51;;;;;;;6.20;4.57;;;;;;;;;;5035534;28;20454;-64
2022/10/23 14:48:17;;;;;;;9.45;5.68;;;;;;;;;;5035356;28;20049;-65
2022/10/23 14:50:47;;;;;;;9.70;6.40;;;;;;;;;;5038356;28;20049;-64
2022/10/23 14:53:14;;;;;;;7.88;4.68;;;;;;;;;;5041708;28;20056;-65
2022/10/23 14:55:41;;;;;;;8.43;5.30;;;;;;;;;;5040204;28;20045;-65
2022/10/23 14:58:08;;;;;;;11.73;8.05;;;;;;;;;;5039831;28;20045;-65
2022/10/23 15:00:34;;;;;;;9.23;7.20;;;;;;;;;;5040211;28;20099;-65
2022/10/23 15:03:01;;;;;;;8.10;5.03;;;;;;;;;;5038232;28;20049;-64
2022/10/23 15:05:27;;;;;;;5.03;3.42;;;;;;;;;;5037161;28;20049;-64
2022/10/23 15:07:55;;;;;;;7.00;4.40;;;;;;;;;;5032206;28;20050;-65